ADDS METAR Data INFO
IDs: Format: Raw Decoded Include TAF

Data at: 0927 UTC 25 Feb 2018

KHRL 250852Z AUTO 16012KT 7SM FEW010 FEW021 22/22 A2987 RMK AO2 SLP114 T02220217 58005
KHRL 250835Z AUTO 16010KT 7SM FEW010 SCT019 22/22 A2988 RMK AO2 T02220217
KHRL 250824Z AUTO 17009KT 7SM SCT011 BKN019 22/22 A2989 RMK AO2 T02220217
KHRL 250752Z AUTO 16011KT 8SM BKN011 OVC018 23/22 A2989 RMK AO2 SLP120 T02280222
KHRL 250652Z AUTO 17012KT 10SM OVC012 23/22 A2989 RMK AO2 SLP120 T02330222
KHRL 250633Z AUTO 17014KT 10SM BKN012 23/22 A2989 RMK AO2 T02330222
KHRL 250552Z AUTO 17014KT 10SM CLR 23/22 A2988 RMK AO2 SLP119 T02330217 10267 20228 403060222 51007
KHRL 250452Z 17013KT 10SM FEW014 23/22 A2988 RMK AO2 SLP119 T02330217
KHRL 250352Z 17018G22KT 10SM CLR 23/22 A2987 RMK AO2 SLP116 T02330217
KHRL 250252Z 17019G23KT 10SM CLR 23/22 A2986 RMK AO2 SLP112 T02330217 53022
KHRL 250152Z 17018KT 10SM CLR 24/21 A2984 RMK AO2 SLP103 T02390211
KHRL 250052Z 16019G23KT 10SM CLR 25/20 A2981 RMK AO2 PK WND 16028/0009 SLP092 T02500200
KHRL 242352Z 17020G24KT 10SM CLR 27/20 A2980 RMK AO2 PK WND 17030/2312 SLP089 T02670200 10306 20267 53008
KHRL 242252Z 17021G28KT 10SM CLR 28/21 A2978 RMK AO2 PK WND 16032/2222 SLP082 T02780206
KHRL 242152Z 18025G36KT 10SM CLR 29/20 A2976 RMK AO2 PK WND 18040/2103 SLP078 T02940200
KHRL 242052Z 18027G39KT 10SM CLR 30/21 A2977 RMK AO2 PK WND 17041/2041 SLP082 T03000206 56029
KHRL 241952Z 17029G38KT 10SM CLR 30/21 A2979 RMK AO2 PK WND 16040/1858 SLP089 T03000206
KHRL 241852Z 18026G37KT 10SM FEW035 30/21 A2983 RMK AO2 PK WND 18043/1757 SLP102 T03000206
KHRL 241752Z 17030G36KT 10SM FEW033 29/21 A2986 RMK AO2 PK WND 17041/1708 SLP111 T02940206 10294 20222 58017
KHRL 241652Z 18026G39KT 10SM SCT029 28/21 A2989 RMK AO2 PK WND 17044/1641 SLP120 T02830206
KHRL 241552Z 17025G31KT 10SM BKN025 27/21 A2990 RMK AO2 PK WND 18035/1542 SLP126 T02670206
KHRL 241452Z 17018G30KT 10SM FEW021 FEW026 25/21 A2991 RMK AO2 PK WND 16031/1423 SLP127 T02500206 53003
KHRL 241352Z 17018G23KT 9SM FEW027 23/21 A2990 RMK AO2 SLP125 T02280211
KHRL 241335Z 17016KT 9SM FEW027 23/21 A2991 RMK AO2 T02280211
KHRL 241252Z 17016G22KT 10SM BKN015 OVC027 23/21 A2990 RMK AO2 SLP125 T02280211
KHRL 241239Z 17020KT 10SM SCT014 OVC027 23/21 A2990 RMK AO2 T02280211
KHRL 241152Z 17012KT 9SM BKN013 BKN018 OVC024 23/21 A2990 RMK AO2 SLP124 T02280211 10233 20228 55006
KHRL 241138Z AUTO 18014KT 9SM BKN015 OVC024 23/21 A2989 RMK AO2 T02280211
KHRL 241122Z AUTO 17014KT 9SM BKN014 OVC024 23/21 A2988 RMK AO2 T02280211
KHRL 241052Z AUTO 17017G25KT 9SM FEW016 BKN022 23/21 A2987 RMK AO2 PK WND 16027/1038 SLP116 T02280211
KHRL 240952Z AUTO 17014KT 9SM OVC018 23/21 A2990 RMK AO2 PK WND 17029/0927 SLP124 T02280211
KHRL 240852Z AUTO 17015G22KT 9SM OVC016 23/22 A2992 RMK AO2 PK WND 16027/0813 SLP130 T02330217 56006
KHRL 240752Z AUTO 17018G25KT 10SM OVC016 23/21 A2992 RMK AO2 PK WND 16031/0725 SLP132 T02330211
KHRL 240652Z AUTO 17020G32KT 10SM OVC016 23/22 A2993 RMK AO2 PK WND 15035/0642 SLP136 T02330217
KHRL 240552Z AUTO 17019G31KT 10SM OVC013 23/22 A2994 RMK AO2 PK WND 16031/0541 SLP139 T02330217 10267 20228 403060133 58004
KHRL 240452Z 17020G24KT 9SM OVC014 23/22 A2996 RMK AO2 SLP146 T02330217
KHRL 240440Z 16015KT 9SM OVC015 23/22 A2996 RMK AO2 T02330217
KHRL 240352Z 16020G27KT 10SM BKN014 OVC018 23/22 A2995 RMK AO2 PK WND 15027/0345 SLP143 T02330222
KHRL 240252Z 15016KT 10SM OVC014 23/22 A2995 RMK AO2 SLP143 T02280217 50002
KHRL 240250Z 15015KT 10SM BKN014 23/22 A2996 RMK AO2
KHRL 240239Z 16016KT 10SM BKN015 23/22 A2996 RMK AO2 T02280217
KHRL 240152Z 15014KT 10SM CLR 23/21 A2995 RMK AO2 SLP142 T02280211
KHRL 240052Z 15017KT 10SM CLR 24/20 A2995 RMK AO2 PK WND 15026/0008 SLP141 T02390200
KHRL 232352Z 15020G28KT 10SM CLR 27/19 A2994 RMK AO2 PK WND 16030/2335 SLP140 T02670189 10306 20267 55005
KHRL 232252Z 16020G26KT 10SM CLR 28/19 A2994 RMK AO2 PK WND 15028/2212 SLP137 T02830194
KHRL 232152Z 16022G28KT 10SM CLR 29/19 A2995 RMK AO2 PK WND 15034/2113 SLP140 T02890189